Time;durP1;ratioP1;P1;durP2;ratioP2;P2;SDS_P1;SDS_P2;PMS_P1;PMS_P2;Temp;Humidity;BMP_temperature;BMP_pressure;BME280_temperature;BME280_humidity;BME280_pressure;Samples;Min_cycle;Max_cycle;Signal;HPM_P1;HPM_P2
2022/03/20 00:01:02;;;;;;;25.55;19.38;;;5.90;59.40;;;;;;5072866;28;20262;-57
2022/03/20 00:03:31;;;;;;;23.85;18.88;;;5.90;59.20;;;;;;5072738;28;20224;-57
2022/03/20 00:06:00;;;;;;;23.35;19.35;;;5.80;60.20;;;;;;5072764;28;20207;-57
2022/03/20 00:08:27;;;;;;;23.33;17.92;;;5.80;59.30;;;;;;5071226;28;20606;-57
2022/03/20 00:10:57;;;;;;;26.85;20.05;;;5.80;59.50;;;;;;5072628;28;20228;-57
2022/03/20 00:13:24;;;;;;;23.02;19.00;;;5.90;60.30;;;;;;5072502;28;20208;-57
2022/03/20 00:15:53;;;;;;;23.40;19.00;;;5.80;58.40;;;;;;5072849;28;20200;-57
2022/03/20 00:18:23;;;;;;;23.35;19.75;;;5.90;59.80;;;;;;5072731;28;20204;-57
2022/03/20 00:20:51;;;;;;;21.00;18.48;;;5.90;59.50;;;;;;5072618;28;20271;-57
2022/03/20 00:23:22;;;;;;;22.38;18.27;;;5.90;59.40;;;;;;5071015;28;20327;-57
2022/03/20 00:25:49;;;;;;;24.77;20.33;;;5.90;58.70;;;;;;5072438;28;20201;-57
2022/03/20 00:28:23;;;;;;;25.00;20.85;;;6.00;59.20;;;;;;5072521;28;20276;-57
2022/03/20 00:30:50;;;;;;;24.98;19.98;;;6.00;58.40;;;;;;5072460;28;20558;-57
2022/03/20 00:33:17;;;;;;;22.13;18.05;;;6.00;59.10;;;;;;5072596;28;20204;-57
2022/03/20 00:35:44;;;;;;;24.08;18.75;;;6.00;59.00;;;;;;5072500;28;20209;-57
2022/03/20 00:38:11;;;;;;;23.75;18.42;;;6.00;57.70;;;;;;5071346;28;20211;-57
2022/03/20 00:40:39;;;;;;;22.73;19.75;;;6.00;58.30;;;;;;5072392;28;20300;-57
2022/03/20 00:43:07;;;;;;;24.33;19.73;;;6.00;58.60;;;;;;5072234;28;20733;-57
2022/03/20 00:45:34;;;;;;;22.92;19.33;;;6.10;58.70;;;;;;5072441;28;20690;-57
2022/03/20 00:48:01;;;;;;;23.58;18.85;;;6.10;59.00;;;;;;5072479;28;20628;-57
2022/03/20 00:50:28;;;;;;;26.70;19.00;;;6.10;58.90;;;;;;5072405;28;20232;-57
2022/03/20 00:52:55;;;;;;;24.00;19.40;;;6.20;58.40;;;;;;5072145;28;20204;-57
2022/03/20 00:55:22;;;;;;;22.23;17.80;;;6.10;58.20;;;;;;5070972;28;20286;-57
2022/03/20 00:57:50;;;;;;;24.02;18.80;;;6.10;56.80;;;;;;5072180;28;20240;-57
2022/03/20 01:00:17;;;;;;;24.20;18.60;;;6.10;58.20;;;;;;5072387;28;20287;-57
2022/03/20 01:02:45;;;;;;;22.13;18.48;;;6.20;58.20;;;;;;5073672;28;20319;-57
2022/03/20 01:05:13;;;;;;;20.65;17.67;;;6.30;57.90;;;;;;5075954;28;20626;-57
2022/03/20 01:07:41;;;;;;;23.38;19.15;;;6.40;58.00;;;;;;5075706;28;20386;-57
2022/03/20 01:10:09;;;;;;;24.73;19.00;;;6.40;57.30;;;;;;5074302;28;20597;-57
2022/03/20 01:12:38;;;;;;;23.90;19.02;;;6.30;56.80;;;;;;5075795;28;20212;-57
2022/03/20 01:15:10;;;;;;;24.13;18.92;;;6.40;57.50;;;;;;5075685;28;20205;-57
2022/03/20 01:17:37;;;;;;;23.95;18.52;;;6.40;57.40;;;;;;5075584;28;20730;-58
2022/03/20 01:20:05;;;;;;;23.00;18.65;;;6.50;57.30;;;;;;5075441;28;20208;-57
2022/03/20 01:22:32;;;;;;;23.63;17.75;;;6.50;56.70;;;;;;5075439;28;20315;-57
2022/03/20 01:25:00;;;;;;;24.45;18.63;;;6.40;56.30;;;;;;5074141;28;20258;-57
2022/03/20 01:27:26;;;;;;;25.48;19.60;;;6.40;57.20;;;;;;5075469;28;20208;-57
2022/03/20 01:29:54;;;;;;;25.13;18.98;;;6.30;57.10;;;;;;5075438;28;20252;-57
2022/03/20 01:32:22;;;;;;;23.23;19.00;;;6.40;57.40;;;;;;5075344;28;20200;-57
2022/03/20 01:34:50;;;;;;;21.98;19.63;;;6.40;56.70;;;;;;5075322;28;20686;-57
2022/03/20 01:37:16;;;;;;;22.58;19.00;;;6.50;56.20;;;;;;5075307;28;20251;-57
2022/03/20 01:39:43;;;;;;;25.17;20.25;;;6.50;56.10;;;;;;5073797;28;20296;-57
2022/03/20 01:42:16;;;;;;;20.52;17.92;;;6.50;56.50;;;;;;5075040;28;20228;-57
2022/03/20 01:44:43;;;;;;;23.92;18.50;;;6.40;56.50;;;;;;5075111;28;20239;-57
2022/03/20 01:47:10;;;;;;;21.55;17.98;;;6.40;55.80;;;;;;5074941;28;20626;-57
2022/03/20 01:49:39;;;;;;;25.58;18.52;;;6.30;57.00;;;;;;5074936;28;20751;-57
2022/03/20 01:52:13;;;;;;;26.33;19.42;;;6.30;57.20;;;;;;5074943;28;20288;-57
2022/03/20 01:54:45;;;;;;;22.70;18.73;;;6.40;57.00;;;;;;5073640;28;20203;-57
2022/03/20 01:57:16;;;;;;;22.58;18.80;;;6.40;56.70;;;;;;5074923;28;20197;-57
2022/03/20 01:59:43;;;;;;;24.10;19.40;;;6.40;56.10;;;;;;5074687;28;20204;-57
2022/03/20 02:02:10;;;;;;;22.23;18.45;;;6.40;56.60;;;;;;5074889;28;20209;-57
2022/03/20 02:04:40;;;;;;;21.80;18.52;;;6.50;56.80;;;;;;5074688;28;20233;-57
2022/03/20 02:07:09;;;;;;;30.50;20.45;;;6.50;56.60;;;;;;5074710;28;20283;-57
2022/03/20 02:09:37;;;;;;;24.38;19.25;;;6.50;56.80;;;;;;5073234;28;20236;-57
2022/03/20 02:12:05;;;;;;;23.50;18.73;;;6.50;56.60;;;;;;5074486;28;20250;-57
2022/03/20 02:14:33;;;;;;;26.73;19.35;;;6.50;56.20;;;;;;5073801;28;20205;-57
2022/03/20 02:17:00;;;;;;;22.05;18.15;;;6.50;56.30;;;;;;5074529;28;20207;-57
2022/03/20 02:19:28;;;;;;;25.40;19.83;;;6.50;56.50;;;;;;5074313;28;20205;-57
2022/03/20 02:21:57;;;;;;;22.98;18.83;;;6.60;56.40;;;;;;5074405;28;20568;-57
2022/03/20 02:24:33;;;;;;;26.40;19.27;;;6.60;56.40;;;;;;5072760;28;20331;-57
2022/03/20 02:27:19;;;;;;;24.95;18.30;;;6.70;56.20;;;;;;5074258;28;20209;-57
2022/03/20 02:29:48;;;;;;;22.60;19.30;;;6.60;56.10;;;;;;5074258;28;20212;-57
2022/03/20 02:32:17;;;;;;;26.73;19.30;;;6.60;56.00;;;;;;5074286;28;20200;-57
2022/03/20 02:34:47;;;;;;;23.85;19.20;;;6.60;56.20;;;;;;5074169;28;20208;-57
2022/03/20 02:37:17;;;;;;;23.60;18.65;;;6.60;56.00;;;;;;5074002;28;20211;-57
2022/03/20 02:39:45;;;;;;;28.95;20.40;;;6.60;56.10;;;;;;5072731;28;20233;-57
2022/03/20 02:42:13;;;;;;;21.88;18.15;;;6.60;56.00;;;;;;5073994;28;20691;-57
2022/03/20 02:44:55;;;;;;;25.05;19.52;;;6.50;56.20;;;;;;5073915;28;20291;-57
2022/03/20 02:47:24;;;;;;;24.58;19.60;;;6.60;56.20;;;;;;5073995;28;20204;-57
2022/03/20 02:49:55;;;;;;;26.45;20.58;;;6.50;54.80;;;;;;5073723;28;20205;-57
2022/03/20 02:52:26;;;;;;;24.95;20.00;;;6.40;55.60;;;;;;5073821;28;20291;-57
2022/03/20 02:54:53;;;;;;;33.53;19.80;;;6.30;56.00;;;;;;5072359;28;20244;-57
2022/03/20 02:57:20;;;;;;;25.77;19.25;;;6.30;56.70;;;;;;5073744;28;20204;-57
2022/03/20 02:59:47;;;;;;;22.88;17.85;;;6.40;56.70;;;;;;5073626;28;20291;-57
2022/03/20 03:02:14;;;;;;;22.23;18.75;;;6.50;56.80;;;;;;5073521;28;20200;-57
2022/03/20 03:04:42;;;;;;;21.70;19.20;;;6.60;56.70;;;;;;5073547;28;20239;-57
2022/03/20 03:07:09;;;;;;;28.17;20.98;;;6.60;56.60;;;;;;5073581;28;20232;-57
2022/03/20 03:12:22;;;;;;;28.02;19.63;;;6.70;56.40;;;;;;5073632;28;20560;-57
2022/03/20 03:17:37;;;;;;;28.33;21.08;;;6.50;55.50;;;;;;5073424;28;20199;-58
2022/03/20 03:20:05;;;;;;;27.83;19.45;;;6.30;55.30;;;;;;5073358;28;20663;-57
2022/03/20 03:22:31;;;;;;;27.30;19.75;;;6.20;56.40;;;;;;5073112;28;20320;-57
2022/03/20 03:25:00;;;;;;;28.13;20.75;;;6.20;56.60;;;;;;5071521;28;20232;-57
2022/03/20 03:27:26;;;;;;;26.35;19.92;;;6.30;56.60;;;;;;5073189;28;20239;-57
2022/03/20 03:29:53;;;;;;;23.67;20.13;;;6.40;56.50;;;;;;5073149;28;20251;-57
2022/03/20 03:32:20;;;;;;;25.60;20.58;;;6.40;56.20;;;;;;5073138;28;20200;-57
2022/03/20 03:37:32;;;;;;;24.58;19.50;;;6.30;56.20;;;;;;5073121;28;20204;-57
2022/03/20 03:40:02;;;;;;;24.15;18.88;;;6.30;56.20;;;;;;5071445;28;20690;-57
2022/03/20 03:42:29;;;;;;;27.42;21.10;;;6.20;56.70;;;;;;5072993;28;20671;-57
2022/03/20 03:44:56;;;;;;;22.73;18.85;;;6.20;57.00;;;;;;5072858;28;20593;-57
2022/03/20 03:47:25;;;;;;;26.52;20.35;;;6.30;57.10;;;;;;5073091;28;20210;-57
2022/03/20 03:49:52;;;;;;;27.23;20.17;;;6.30;57.00;;;;;;5072902;28;20295;-57
2022/03/20 03:52:19;;;;;;;30.00;22.30;;;6.30;57.10;;;;;;5072749;28;20287;-57
2022/03/20 03:54:46;;;;;;;28.10;20.70;;;6.30;56.80;;;;;;5071445;28;20204;-57
2022/03/20 03:57:15;;;;;;;24.33;19.67;;;6.40;56.70;;;;;;5072883;28;20231;-57
2022/03/20 03:59:41;;;;;;;25.98;19.90;;;6.40;56.70;;;;;;5072972;28;20295;-57
2022/03/20 04:02:08;;;;;;;28.58;22.02;;;6.40;57.20;;;;;;5072847;28;20201;-57
2022/03/20 04:04:35;;;;;;;26.52;21.48;;;6.40;56.40;;;;;;5072848;28;20236;-57
2022/03/20 04:07:03;;;;;;;28.00;21.33;;;6.30;56.90;;;;;;5072613;28;20197;-57
2022/03/20 04:09:31;;;;;;;33.72;22.50;;;6.30;57.40;;;;;;5071407;28;20317;-56
2022/03/20 04:11:58;;;;;;;28.75;20.45;;;6.30;57.70;;;;;;5072825;28;20289;-57
2022/03/20 04:14:26;;;;;;;28.45;20.65;;;6.30;57.50;;;;;;5072732;28;20738;-57
2022/03/20 04:16:54;;;;;;;24.70;20.08;;;6.30;57.60;;;;;;5072752;28;20204;-57
2022/03/20 04:19:21;;;;;;;25.40;20.88;;;6.30;57.20;;;;;;5072596;28;20226;-57
2022/03/20 04:21:48;;;;;;;26.20;21.60;;;6.30;57.40;;;;;;5072643;28;20327;-57
2022/03/20 04:24:15;;;;;;;30.45;21.92;;;6.30;57.20;;;;;;5071046;28;20248;-57
2022/03/20 04:26:42;;;;;;;26.25;20.58;;;6.30;57.10;;;;;;5072589;28;20291;-57
2022/03/20 04:29:09;;;;;;;27.55;20.73;;;6.20;57.30;;;;;;5072629;28;20838;-57
2022/03/20 04:31:37;;;;;;;29.65;22.45;;;6.10;57.30;;;;;;5072518;28;20579;-57
2022/03/20 04:34:04;;;;;;;25.58;21.83;;;6.00;57.70;;;;;;5072374;28;20232;-57
2022/03/20 04:36:31;;;;;;;27.25;21.30;;;6.00;57.40;;;;;;5072469;28;20212;-57
2022/03/20 04:38:59;;;;;;;29.17;21.45;;;6.00;57.50;;;;;;5074670;28;20205;-57
2022/03/20 04:41:26;;;;;;;27.63;20.80;;;6.00;57.30;;;;;;5076228;28;20238;-57
2022/03/20 04:43:53;;;;;;;27.50;20.73;;;5.90;57.30;;;;;;5076180;28;20706;-57
2022/03/20 04:46:20;;;;;;;28.48;20.90;;;5.90;57.50;;;;;;5076218;28;20201;-57
2022/03/20 04:59:47;;;;;;;28.35;21.45;;;5.60;58.50;;;;;;5076015;28;20204;-57
2022/03/20 05:02:14;;;;;;;27.17;21.05;;;5.70;58.90;;;;;;5075908;28;20283;-56
2022/03/20 05:04:42;;;;;;;29.55;21.42;;;5.80;58.50;;;;;;5075743;28;20239;-57
2022/03/20 05:07:09;;;;;;;30.90;22.00;;;5.80;58.50;;;;;;5075756;28;20300;-57
2022/03/20 05:15:06;;;;;;;28.20;21.90;;;5.70;58.40;;;;;;5075896;28;20334;-56
2022/03/20 05:17:33;;;;;;;30.80;22.48;;;5.70;58.50;;;;;;5075523;28;20236;-57
2022/03/20 05:20:01;;;;;;;33.75;23.83;;;5.70;58.70;;;;;;5075519;28;20211;-57
2022/03/20 05:22:28;;;;;;;34.85;24.77;;;5.70;59.20;;;;;;5075425;28;20297;-57
2022/03/20 05:24:55;;;;;;;32.63;23.77;;;5.60;59.20;;;;;;5073978;28;20298;-57
2022/03/20 05:27:22;;;;;;;35.15;22.52;;;5.60;59.20;;;;;;5075476;28;20296;-57
2022/03/20 05:29:49;;;;;;;35.13;22.42;;;5.50;59.40;;;;;;5075412;28;20239;-57
2022/03/20 05:32:16;;;;;;;29.15;22.45;;;5.50;59.50;;;;;;5075481;28;20207;-56
2022/03/20 05:34:44;;;;;;;28.45;21.83;;;5.50;59.80;;;;;;5075312;28;20694;-57
2022/03/20 05:37:12;;;;;;;29.48;22.80;;;5.50;59.70;;;;;;5075207;28;20201;-57
2022/03/20 05:39:39;;;;;;;30.80;22.60;;;5.50;59.90;;;;;;5073766;28;20790;-57
2022/03/20 05:42:07;;;;;;;32.42;23.45;;;5.50;60.00;;;;;;5075098;28;20574;-57
2022/03/20 05:44:34;;;;;;;26.20;21.23;;;5.50;60.10;;;;;;5075124;28;20660;-57
2022/03/20 05:47:02;;;;;;;32.33;21.88;;;5.50;60.30;;;;;;5075002;28;20208;-57
2022/03/20 05:49:29;;;;;;;33.13;23.50;;;5.50;60.20;;;;;;5073743;28;20285;-57
2022/03/20 05:51:57;;;;;;;32.88;22.02;;;5.50;60.20;;;;;;5075022;28;20208;-57
2022/03/20 05:54:25;;;;;;;36.75;22.45;;;5.50;60.50;;;;;;5073508;28;20201;-57
2022/03/20 05:59:37;;;;;;;32.85;24.23;;;5.50;60.30;;;;;;5074801;28;20304;-57
2022/03/20 06:02:06;;;;;;;34.42;23.45;;;5.60;60.40;;;;;;5074853;28;20568;-57
2022/03/20 06:04:33;;;;;;;32.22;23.25;;;5.60;60.70;;;;;;5074816;28;20318;-57
2022/03/20 06:07:00;;;;;;;33.25;23.20;;;5.70;60.90;;;;;;5074680;28;20714;-57
2022/03/20 06:09:28;;;;;;;37.45;24.27;;;5.70;61.20;;;;;;5069580;28;20655;-57
2022/03/20 06:11:56;;;;;;;34.22;24.15;;;5.70;61.50;;;;;;5074659;28;20215;-56
2022/03/20 06:14:23;;;;;;;30.60;24.17;;;5.70;61.90;;;;;;5074573;28;20232;-56
2022/03/20 06:16:50;;;;;;;33.83;23.95;;;5.60;62.40;;;;;;5074524;28;20325;-56
2022/03/20 06:19:17;;;;;;;36.65;25.10;;;5.60;62.70;;;;;;5074488;28;20641;-57
2022/03/20 06:21:45;;;;;;;34.95;24.30;;;5.60;62.80;;;;;;5074480;28;20209;-57
2022/03/20 06:24:13;;;;;;;32.83;23.13;;;5.70;62.90;;;;;;5072658;28;20228;-57
2022/03/20 06:26:41;;;;;;;33.88;23.30;;;5.70;62.90;;;;;;5074261;28;20307;-57
2022/03/20 06:29:09;;;;;;;34.60;24.23;;;5.80;62.90;;;;;;5074308;28;20205;-57
2022/03/20 06:31:36;;;;;;;34.13;24.85;;;5.80;63.10;;;;;;5074139;28;20212;-57
2022/03/20 06:34:04;;;;;;;31.85;23.67;;;5.80;63.00;;;;;;5074176;28;20207;-57
2022/03/20 06:36:32;;;;;;;33.42;24.95;;;5.90;63.00;;;;;;5074256;28;20293;-57
2022/03/20 06:38:58;;;;;;;34.78;24.08;;;5.90;62.80;;;;;;5072674;28;20205;-57
2022/03/20 06:41:25;;;;;;;34.35;24.20;;;6.00;62.70;;;;;;5073764;28;20250;-57
2022/03/20 06:43:54;;;;;;;30.63;24.25;;;6.00;62.70;;;;;;5074019;28;20560;-57
2022/03/20 06:46:21;;;;;;;32.60;23.65;;;6.10;62.50;;;;;;5073982;28;20201;-57
2022/03/20 06:48:48;;;;;;;30.80;23.45;;;6.10;62.30;;;;;;5073889;28;20209;-57
2022/03/20 06:51:17;;;;;;;32.90;24.58;;;6.10;62.30;;;;;;5073865;28;20197;-57
2022/03/20 06:53:44;;;;;;;34.95;24.48;;;6.10;62.50;;;;;;5072359;28;20205;-57
2022/03/20 06:56:11;;;;;;;34.20;25.23;;;6.10;62.60;;;;;;5073548;28;20212;-57
2022/03/20 06:58:38;;;;;;;34.00;24.08;;;6.20;62.70;;;;;;5073690;28;20299;-57
2022/03/20 07:01:09;;;;;;;36.83;25.10;;;6.10;62.70;;;;;;5073263;28;20641;-58
2022/03/20 07:03:35;;;;;;;36.97;24.70;;;6.10;63.00;;;;;;5073664;28;20255;-57
2022/03/20 07:06:02;;;;;;;31.25;23.88;;;6.20;63.00;;;;;;5073633;28;20235;-57
2022/03/20 07:08:29;;;;;;;33.70;24.13;;;6.20;62.80;;;;;;5072120;28;20211;-57
2022/03/20 07:10:56;;;;;;;33.00;24.85;;;6.20;62.50;;;;;;5073352;28;20642;-57
2022/03/20 07:16:08;;;;;;;31.02;23.73;;;6.30;62.50;;;;;;5073500;28;20204;-57
2022/03/20 07:18:37;;;;;;;36.45;25.92;;;6.30;62.50;;;;;;5073352;28;20209;-57
2022/03/20 07:21:04;;;;;;;34.72;24.75;;;6.40;62.30;;;;;;5073173;28;20652;-57
2022/03/20 07:23:31;;;;;;;35.58;25.20;;;6.50;62.20;;;;;;5071736;28;20229;-57
2022/03/20 07:31:28;;;;;;;35.15;24.42;;;6.70;62.10;;;;;;5073059;28;20295;-57
2022/03/20 07:33:55;;;;;;;39.25;25.80;;;6.70;61.60;;;;;;5073122;28;20243;-57
2022/03/20 07:36:22;;;;;;;35.67;25.83;;;6.70;61.60;;;;;;5073064;28;20232;-57
2022/03/20 07:38:50;;;;;;;34.88;26.27;;;6.80;61.40;;;;;;5071749;28;20201;-57
2022/03/20 07:41:17;;;;;;;37.80;25.55;;;6.90;61.50;;;;;;5072900;28;20535;-57
2022/03/20 07:43:44;;;;;;;38.35;26.65;;;6.90;61.60;;;;;;5073040;28;20204;-57
2022/03/20 07:46:12;;;;;;;39.17;26.73;;;7.00;61.70;;;;;;5072839;28;20239;-57
2022/03/20 07:48:41;;;;;;;33.70;25.20;;;7.20;61.50;;;;;;5072919;28;20204;-57
2022/03/20 07:51:07;;;;;;;34.22;23.98;;;7.30;61.10;;;;;;5072962;28;20590;-57
2022/03/20 07:53:34;;;;;;;33.65;25.13;;;7.40;60.80;;;;;;5071578;28;20470;-57
2022/03/20 07:56:01;;;;;;;37.47;26.02;;;7.50;60.10;;;;;;5072714;28;20211;-57
2022/03/20 07:58:28;;;;;;;34.80;25.60;;;7.50;59.90;;;;;;5072729;28;20623;-57
2022/03/20 08:00:55;;;;;;;33.10;25.00;;;7.60;60.20;;;;;;5072883;28;20247;-57
2022/03/20 08:03:22;;;;;;;36.90;26.10;;;7.70;59.60;;;;;;5072774;28;20200;-57
2022/03/20 08:05:50;;;;;;;33.25;25.55;;;7.70;60.00;;;;;;5072679;28;20315;-57
2022/03/20 08:08:17;;;;;;;36.08;25.83;;;7.70;60.30;;;;;;5071402;28;20200;-57
2022/03/20 08:10:44;;;;;;;32.05;24.73;;;7.80;60.00;;;;;;5072535;28;20567;-57
2022/03/20 08:13:12;;;;;;;33.85;24.50;;;7.80;59.70;;;;;;5075083;28;20210;-57
2022/03/20 08:15:40;;;;;;;38.95;26.30;;;7.90;60.10;;;;;;5076745;28;20196;-57
2022/03/20 08:18:07;;;;;;;36.70;26.55;;;8.10;60.00;;;;;;5076793;28;20204;-57
2022/03/20 08:20:35;;;;;;;35.92;25.80;;;8.30;59.10;;;;;;5076814;28;20201;-57
2022/03/20 08:23:04;;;;;;;39.13;25.98;;;8.40;59.30;;;;;;5076539;28;20228;-57
2022/03/20 08:25:32;;;;;;;36.85;25.92;;;8.40;58.80;;;;;;5074957;28;20228;-57
2022/03/20 08:27:59;;;;;;;33.95;26.85;;;8.50;58.90;;;;;;5076662;28;20565;-57
2022/03/20 08:30:26;;;;;;;36.42;26.58;;;8.60;58.50;;;;;;5076621;28;20215;-57
2022/03/20 08:32:54;;;;;;;34.88;26.50;;;8.70;57.80;;;;;;5076460;28;20651;-57
2022/03/20 08:35:21;;;;;;;36.85;26.85;;;8.70;58.10;;;;;;5076383;28;20296;-58
2022/03/20 08:37:52;;;;;;;34.42;25.40;;;8.80;57.70;;;;;;5076334;28;20201;-58
2022/03/20 08:40:22;;;;;;;35.05;25.42;;;8.90;58.20;;;;;;5074936;28;20208;-57
2022/03/20 08:42:52;;;;;;;32.35;24.58;;;9.10;57.10;;;;;;5076324;28;20200;-57
2022/03/20 08:45:20;;;;;;;34.15;25.75;;;9.20;57.90;;;;;;5076055;28;20707;-57
2022/03/20 08:47:47;;;;;;;35.55;24.40;;;9.40;57.20;;;;;;5076265;28;20573;-58
2022/03/20 08:50:15;;;;;;;35.08;26.75;;;9.50;56.70;;;;;;5076159;28;20609;-57
2022/03/20 08:52:44;;;;;;;34.25;25.40;;;9.50;56.60;;;;;;5075898;28;20670;-58
2022/03/20 08:55:11;;;;;;;30.70;24.70;;;9.60;56.90;;;;;;5074511;28;20204;-57
2022/03/20 08:57:41;;;;;;;30.10;24.33;;;9.60;55.10;;;;;;5075821;28;20295;-57
2022/03/20 09:00:11;;;;;;;34.05;24.23;;;9.60;55.20;;;;;;5075894;28;20204;-59
2022/03/20 09:02:38;;;;;;;34.08;25.50;;;9.80;54.70;;;;;;5075684;28;20205;-58
2022/03/20 09:05:06;;;;;;;34.25;24.48;;;9.80;54.00;;;;;;5075685;28;20236;-57
2022/03/20 09:07:33;;;;;;;32.35;24.10;;;9.80;54.10;;;;;;5075825;28;20288;-58
2022/03/20 09:10:00;;;;;;;31.92;24.83;;;9.90;52.90;;;;;;5074205;28;20204;-58
2022/03/20 09:12:27;;;;;;;30.55;22.48;;;9.90;52.90;;;;;;5075705;28;20231;-57
2022/03/20 09:14:55;;;;;;;31.33;24.20;;;10.10;53.40;;;;;;5075610;28;20201;-57
2022/03/20 09:20:07;;;;;;;31.45;23.52;;;10.30;52.20;;;;;;5075542;28;20231;-58
2022/03/20 09:22:35;;;;;;;30.52;23.05;;;10.40;50.60;;;;;;5075464;28;20590;-58
2022/03/20 09:25:02;;;;;;;33.03;23.58;;;10.40;51.10;;;;;;5073593;28;20235;-58
2022/03/20 09:27:30;;;;;;;29.08;22.42;;;10.60;51.50;;;;;;5075460;28;20204;-57
2022/03/20 09:29:58;;;;;;;29.20;22.60;;;10.60;50.30;;;;;;5075472;28;20300;-57
2022/03/20 09:32:25;;;;;;;31.02;23.20;;;10.70;50.30;;;;;;5075150;28;20691;-58
2022/03/20 09:34:51;;;;;;;27.90;22.40;;;10.90;50.50;;;;;;5075185;28;20695;-58
2022/03/20 09:37:18;;;;;;;30.77;23.83;;;11.10;50.20;;;;;;5075141;28;20211;-58
2022/03/20 09:39:45;;;;;;;29.00;23.63;;;11.30;49.40;;;;;;5074043;28;20211;-57
2022/03/20 09:42:13;;;;;;;30.58;23.88;;;11.40;50.60;;;;;;5075231;28;20223;-57
2022/03/20 09:44:41;;;;;;;28.05;22.70;;;11.70;48.40;;;;;;5075219;28;20300;-57
2022/03/20 09:47:12;;;;;;;28.63;22.73;;;11.80;48.10;;;;;;5074896;28;20232;-57
2022/03/20 09:49:39;;;;;;;24.88;21.83;;;11.90;48.10;;;;;;5075049;28;20211;-58
2022/03/20 09:52:07;;;;;;;25.08;20.88;;;12.00;49.00;;;;;;5075187;28;20295;-58
2022/03/20 09:54:34;;;;;;;30.67;21.83;;;12.10;48.70;;;;;;5073649;28;20744;-58
2022/03/20 09:57:04;;;;;;;29.90;22.20;;;12.40;48.90;;;;;;5074797;28;20217;-58
2022/03/20 09:59:32;;;;;;;26.85;23.67;;;12.60;48.00;;;;;;5074827;28;20211;-58
2022/03/20 10:02:03;;;;;;;28.60;23.25;;;12.70;47.80;;;;;;5074757;28;20556;-58
2022/03/20 10:04:34;;;;;;;27.67;22.10;;;12.70;47.70;;;;;;5074748;28;20208;-58
2022/03/20 10:07:01;;;;;;;31.83;24.77;;;12.60;47.90;;;;;;5074658;28;20590;-58
2022/03/20 10:09:28;;;;;;;27.35;21.80;;;12.70;48.70;;;;;;5073337;28;20200;-58
2022/03/20 10:11:57;;;;;;;28.13;22.05;;;12.70;49.80;;;;;;5074461;28;20215;-57
2022/03/20 10:14:26;;;;;;;29.75;22.25;;;12.90;50.00;;;;;;5074676;28;20219;-58
2022/03/20 10:16:57;;;;;;;28.25;23.50;;;13.20;49.10;;;;;;5074427;28;20679;-60
2022/03/20 10:19:33;;;;;;;24.98;21.73;;;13.30;48.70;;;;;;5074476;28;20208;-58
2022/03/20 10:22:02;;;;;;;27.20;22.55;;;13.50;49.60;;;;;;5074458;28;20247;-61
2022/03/20 10:24:32;;;;;;;28.23;21.90;;;13.60;49.20;;;;;;5072706;28;20251;-61
2022/03/20 10:27:11;;;;;;;24.02;20.13;;;13.60;49.10;;;;;;5074173;28;20228;-58
2022/03/20 10:29:47;;;;;;;25.88;22.33;;;13.60;50.60;;;;;;5074198;28;20258;-58
2022/03/20 10:32:14;;;;;;;24.65;21.13;;;13.70;49.10;;;;;;5074165;28;20649;-58
2022/03/20 10:34:50;;;;;;;25.92;21.27;;;13.60;48.80;;;;;;5073512;28;20233;-58
2022/03/20 10:37:18;;;;;;;31.45;22.27;;;13.40;49.70;;;;;;5074153;28;20656;-58
2022/03/20 10:39:45;;;;;;;26.52;20.95;;;13.00;50.50;;;;;;5072649;28;20209;-58
2022/03/20 10:42:13;;;;;;;24.17;20.95;;;12.90;51.20;;;;;;5074069;28;20288;-58
2022/03/20 10:44:40;;;;;;;26.80;20.70;;;13.00;51.30;;;;;;5073883;28;20285;-58
2022/03/20 10:47:12;;;;;;;32.28;21.83;;;13.10;51.50;;;;;;5073822;28;20231;-58
2022/03/20 10:49:40;;;;;;;24.25;20.50;;;13.10;51.00;;;;;;5073636;28;20330;-58
2022/03/20 10:52:10;;;;;;;23.20;19.80;;;13.20;51.10;;;;;;5073785;28;20303;-58
2022/03/20 10:54:43;;;;;;;28.50;20.35;;;13.20;51.20;;;;;;5072462;28;20205;-58
2022/03/20 10:57:11;;;;;;;24.40;19.98;;;13.20;51.00;;;;;;5073523;28;20208;-58
2022/03/20 10:59:39;;;;;;;27.70;20.77;;;13.40;50.70;;;;;;5073789;28;20205;-58
2022/03/20 11:02:08;;;;;;;26.42;21.92;;;13.50;52.00;;;;;;5073453;28;20209;-58
2022/03/20 11:04:35;;;;;;;23.95;19.92;;;13.80;51.20;;;;;;5073596;28;20205;-59
2022/03/20 11:07:07;;;;;;;22.90;19.05;;;13.90;49.90;;;;;;5073614;28;20259;-58
2022/03/20 11:09:35;;;;;;;25.17;20.10;;;13.70;48.30;;;;;;5072228;28;20205;-58
2022/03/20 11:12:08;;;;;;;22.55;20.15;;;13.60;49.40;;;;;;5073374;28;20201;-58
2022/03/20 11:14:37;;;;;;;23.92;20.27;;;13.80;49.70;;;;;;5073333;28;20205;-58
2022/03/20 11:17:06;;;;;;;23.55;20.98;;;14.10;50.70;;;;;;5073407;28;20205;-59
2022/03/20 11:19:35;;;;;;;24.60;20.30;;;14.30;47.40;;;;;;5073198;28;20205;-58
2022/03/20 11:22:05;;;;;;;25.38;19.70;;;14.30;48.60;;;;;;5073387;28;20451;-58
2022/03/20 11:24:33;;;;;;;20.90;18.60;;;14.50;48.10;;;;;;5071779;28;20243;-58
2022/03/20 11:27:03;;;;;;;23.43;20.00;;;14.70;48.50;;;;;;5073043;28;20921;-58
2022/03/20 11:29:35;;;;;;;26.17;20.37;;;15.30;45.80;;;;;;5073199;28;20538;-58
2022/03/20 11:32:03;;;;;;;26.73;22.40;;;15.90;45.60;;;;;;5073182;28;20442;-59
2022/03/20 11:34:31;;;;;;;21.97;19.67;;;16.80;44.00;;;;;;5073093;28;20503;-58
2022/03/20 11:37:06;;;;;;;21.20;18.13;;;18.10;45.20;;;;;;5072968;28;20926;-59
2022/03/20 11:39:33;;;;;;;22.60;18.37;;;19.70;42.10;;;;;;5071795;28;20466;-59
2022/03/20 11:42:24;;;;;;;20.93;17.97;;;20.70;37.40;;;;;;5072877;28;20457;-58
2022/03/20 11:44:53;;;;;;;20.10;17.70;;;21.90;39.70;;;;;;5072936;28;20820;-59
2022/03/20 11:47:22;;;;;;;21.03;18.90;;;23.20;36.80;;;;;;5072863;28;20495;-59
2022/03/20 11:50:07;;;;;;;20.73;18.77;;;24.00;35.10;;;;;;5072778;28;20451;-59
2022/03/20 11:52:45;;;;;;;20.63;18.63;;;23.40;32.80;;;;;;5073095;28;20442;-58
2022/03/20 11:55:25;;;;;;;19.47;17.10;;;22.80;31.90;;;;;;5071508;28;20543;-58
2022/03/20 11:57:54;;;;;;;20.60;18.40;;;22.30;35.50;;;;;;5072703;28;20455;-58
2022/03/20 12:00:24;;;;;;;19.53;17.60;;;22.20;35.00;;;;;;5072805;28;20451;-59
2022/03/20 12:02:57;;;;;;;18.17;16.37;;;22.10;33.60;;;;;;5072759;28;20457;-59
2022/03/20 12:05:38;;;;;;;19.90;17.80;;;22.20;35.60;;;;;;5072736;28;20533;-60
2022/03/20 12:08:18;;;;;;;19.67;17.60;;;22.40;31.90;;;;;;5072721;28;20450;-58
2022/03/20 12:10:53;;;;;;;18.67;16.73;;;21.40;34.40;;;;;;5072499;28;20494;-58
2022/03/20 12:13:32;;;;;;;17.97;16.20;;;20.80;33.80;;;;;;5072750;28;20497;-59
2022/03/20 12:15:58;;;;;;;17.13;15.33;;;20.10;35.40;;;;;;5072676;28;20453;-59
2022/03/20 12:18:25;;;;;;;16.93;15.40;;;19.80;35.20;;;;;;5072542;28;20490;-59
2022/03/20 12:21:03;;;;;;;20.67;15.73;;;19.70;37.40;;;;;;5072670;28;20553;-58
2022/03/20 12:23:39;;;;;;;17.97;16.27;;;20.00;38.50;;;;;;5071147;28;20553;-59
2022/03/20 12:26:34;;;;;;;15.43;13.90;;;19.90;36.50;;;;;;5072380;28;20494;-58
2022/03/20 12:29:36;;;;;;;14.87;13.37;;;19.50;36.50;;;;;;5072678;28;20447;-60
2022/03/20 12:32:06;;;;;;;18.10;16.30;;;19.10;34.80;;;;;;5072471;28;20468;-59
2022/03/20 12:34:33;;;;;;;18.03;16.13;;;18.50;38.00;;;;;;5072398;28;20490;-59
2022/03/20 12:37:38;;;;;;;18.63;16.80;;;18.60;40.90;;;;;;5072511;28;20922;-58
2022/03/20 12:40:10;;;;;;;17.80;15.97;;;18.40;39.10;;;;;;5069199;28;20466;-58
2022/03/20 12:42:39;;;;;;;18.13;16.33;;;18.40;40.60;;;;;;5072460;28;20443;-58
2022/03/20 12:45:10;;;;;;;19.40;17.40;;;18.60;40.50;;;;;;5072448;28;20465;-58
2022/03/20 12:47:37;;;;;;;17.40;15.53;;;18.60;38.20;;;;;;5072313;28;20517;-58
2022/03/20 12:50:06;;;;;;;19.10;15.40;;;18.60;37.30;;;;;;5072416;28;20462;-58
2022/03/20 12:52:35;;;;;;;18.27;16.47;;;18.30;40.30;;;;;;5072121;28;20457;-58
2022/03/20 12:55:04;;;;;;;18.73;16.20;;;18.40;38.80;;;;;;5071277;28;20551;-59
2022/03/20 12:57:39;;;;;;;19.13;16.90;;;18.60;37.60;;;;;;5072126;28;20461;-58
2022/03/20 13:00:10;;;;;;;18.50;16.60;;;18.40;38.00;;;;;;5075711;28;20454;-58
2022/03/20 13:02:57;;;;;;;17.53;15.80;;;18.40;37.00;;;;;;5075915;28;20512;-58
2022/03/20 13:05:24;;;;;;;18.13;16.33;;;18.40;38.00;;;;;;5075928;28;20453;-59
2022/03/20 13:07:53;;;;;;;18.60;16.43;;;18.50;40.10;;;;;;5075762;28;20988;-58
2022/03/20 13:10:20;;;;;;;19.07;17.07;;;18.90;38.80;;;;;;5074317;28;20500;-58
2022/03/20 13:12:52;;;;;;;18.20;16.50;;;19.20;38.20;;;;;;5075785;28;20508;-59
2022/03/20 13:15:25;;;;;;;19.03;15.80;;;19.40;38.40;;;;;;5075754;28;20470;-59
2022/03/20 13:17:52;;;;;;;18.60;16.70;;;19.50;37.50;;;;;;5075651;28;20601;-58
2022/03/20 13:20:20;;;;;;;19.50;17.53;;;19.70;36.10;;;;;;5075554;28;20546;-58